Time;durP1;ratioP1;P1;durP2;ratioP2;P2;SDS_P1;SDS_P2;PMS_P1;PMS_P2;Temp;Humidity;BMP_temperature;BMP_pressure;BME280_temperature;BME280_humidity;BME280_pressure;Samples;Min_cycle;Max_cycle;Signal;HPM_P1;HPM_P2
2022/12/07 00:00:44;;;;;;;2.60;0.80;;;;;;;;;;102479;1318;22479;-80
2022/12/07 00:03:11;;;;;;;2.90;0.80;;;;;;;;;;102472;1319;25241;-78
2022/12/07 00:05:38;;;;;;;3.70;1.00;;;;;;;;;;102453;1319;22470;-84
2022/12/07 00:08:04;;;;;;;3.60;1.20;;;;;;;;;;102402;1319;22714;-81
2022/12/07 00:10:33;;;;;;;3.40;1.10;;;;;;;;;;102445;1319;24341;-80
2022/12/07 00:12:59;;;;;;;3.60;1.00;;;;;;;;;;101691;1316;1442167;-85
2022/12/07 00:15:26;;;;;;;6.10;1.70;;;;;;;;;;102483;1316;22477;-77
2022/12/07 00:17:53;;;;;;;3.30;0.90;;;;;;;;;;102652;1317;22494;-78
2022/12/07 00:20:19;;;;;;;4.50;0.90;;;;;;;;;;102677;1316;22513;-85
2022/12/07 00:22:46;;;;;;;3.30;0.70;;;;;;;;;;102647;1317;22492;-82
2022/12/07 00:25:13;;;;;;;2.60;0.60;;;;;;;;;;102862;1316;25537;-78
2022/12/07 00:27:39;;;;;;;4.50;1.00;;;;;;;;;;102836;1304;24243;-83
2022/12/07 00:30:06;;;;;;;2.60;0.60;;;;;;;;;;103312;1310;23844;-80
2022/12/07 00:32:33;;;;;;;2.50;0.70;;;;;;;;;;103116;1309;23295;-80
2022/12/07 00:35:00;;;;;;;2.80;0.50;;;;;;;;;;103307;1304;25351;-81
2022/12/07 00:37:26;;;;;;;2.40;0.70;;;;;;;;;;103092;1310;24464;-81
2022/12/07 00:39:53;;;;;;;2.40;0.70;;;;;;;;;;103220;1311;25689;-79
2022/12/07 00:42:20;;;;;;;2.80;0.70;;;;;;;;;;103197;1310;24320;-80
2022/12/07 00:44:46;;;;;;;3.00;0.70;;;;;;;;;;103226;1306;24277;-83
2022/12/07 00:47:13;;;;;;;3.20;0.80;;;;;;;;;;103185;1302;22845;-77
2022/12/07 00:49:40;;;;;;;3.30;0.50;;;;;;;;;;103399;1310;22593;-81
2022/12/07 00:52:06;;;;;;;2.60;0.60;;;;;;;;;;103465;1307;24301;-82
2022/12/07 00:54:33;;;;;;;2.60;0.60;;;;;;;;;;103595;1307;22479;-78
2022/12/07 00:56:59;;;;;;;2.30;0.70;;;;;;;;;;103523;1306;24251;-83
2022/12/07 00:59:26;;;;;;;2.10;0.60;;;;;;;;;;103534;1299;22936;-81
2022/12/07 01:01:53;;;;;;;3.00;0.60;;;;;;;;;;103502;1306;22513;-79
2022/12/07 01:04:19;;;;;;;2.80;0.60;;;;;;;;;;103487;1302;22461;-82
2022/12/07 01:06:46;;;;;;;4.30;0.70;;;;;;;;;;103489;1305;22466;-80
2022/12/07 01:09:13;;;;;;;2.60;0.60;;;;;;;;;;103309;1306;25219;-80
2022/12/07 01:11:39;;;;;;;2.20;0.70;;;;;;;;;;103321;1306;22474;-79
2022/12/07 01:14:06;;;;;;;3.30;0.70;;;;;;;;;;103505;1306;22510;-78
2022/12/07 01:16:33;;;;;;;2.50;0.60;;;;;;;;;;103483;1306;25268;-78
2022/12/07 01:19:00;;;;;;;0.70;0.30;;;;;;;;;;103503;1305;25251;-83
2022/12/07 01:21:29;;;;;;;2.50;0.50;;;;;;;;;;103546;1306;24253;-83
2022/12/07 01:23:57;;;;;;;3.50;0.70;;;;;;;;;;103538;1306;22582;-80
2022/12/07 01:26:24;;;;;;;3.60;0.60;;;;;;;;;;103567;1292;26471;-80
2022/12/07 01:28:54;;;;;;;3.00;0.70;;;;;;;;;;103323;1305;22456;-82
2022/12/07 01:31:22;;;;;;;4.10;0.60;;;;;;;;;;103363;1301;22708;-81
2022/12/07 01:33:50;;;;;;;4.30;0.90;;;;;;;;;;103739;1304;22432;-79
2022/12/07 01:36:31;;;;;;;3.40;0.60;;;;;;;;;;103736;1307;22485;-83
2022/12/07 01:38:59;;;;;;;3.70;0.60;;;;;;;;;;103543;1306;24284;-79
2022/12/07 01:41:27;;;;;;;3.10;0.60;;;;;;;;;;103284;1306;25250;-80
2022/12/07 01:44:20;;;;;;;3.10;0.60;;;;;;;;;;103495;1292;22531;-79
2022/12/07 01:46:48;;;;;;;3.20;0.60;;;;;;;;;;103497;1306;22515;-81
2022/12/07 01:49:24;;;;;;;2.80;0.50;;;;;;;;;;103541;1304;24298;-80
2022/12/07 01:51:54;;;;;;;3.80;0.40;;;;;;;;;;103577;1307;24530;-82
2022/12/07 01:54:21;;;;;;;2.90;0.60;;;;;;;;;;103404;1307;25430;-78
2022/12/07 01:56:50;;;;;;;1.90;0.60;;;;;;;;;;103571;1306;22474;-82
2022/12/07 01:59:17;;;;;;;3.30;0.60;;;;;;;;;;103538;1306;22927;-78
2022/12/07 02:01:44;;;;;;;3.20;0.60;;;;;;;;;;103585;1306;22465;-80
2022/12/07 02:04:11;;;;;;;2.70;0.50;;;;;;;;;;103495;1306;22472;-79
2022/12/07 02:06:38;;;;;;;3.10;0.50;;;;;;;;;;103439;1306;25366;-80
2022/12/07 02:09:05;;;;;;;2.50;0.60;;;;;;;;;;103497;1306;22505;-80
2022/12/07 02:11:33;;;;;;;1.80;0.50;;;;;;;;;;103555;1305;22481;-82
2022/12/07 02:14:01;;;;;;;2.20;0.60;;;;;;;;;;103542;1306;22465;-83
2022/12/07 02:16:38;;;;;;;1.50;0.40;;;;;;;;;;103547;1297;23052;-82
2022/12/07 02:19:20;;;;;;;2.00;0.40;;;;;;;;;;103744;1298;22474;-80
2022/12/07 02:21:50;;;;;;;2.30;0.50;;;;;;;;;;103558;1305;25338;-78
2022/12/07 02:24:30;;;;;;;6.20;0.50;;;;;;;;;;103545;1305;21979;-80
2022/12/07 02:27:15;;;;;;;2.00;0.50;;;;;;;;;;103463;1306;22467;-81
2022/12/07 02:29:57;;;;;;;2.40;0.60;;;;;;;;;;103534;1306;25313;-81
2022/12/07 02:32:42;;;;;;;2.30;0.50;;;;;;;;;;103510;1306;22539;-78
2022/12/07 02:35:15;;;;;;;3.20;0.70;;;;;;;;;;103560;1281;24246;-84
2022/12/07 02:37:47;;;;;;;2.50;0.60;;;;;;;;;;103597;1307;22461;-83
2022/12/07 02:40:22;;;;;;;1.50;0.50;;;;;;;;;;103507;1306;22552;-77
2022/12/07 02:42:53;;;;;;;1.90;0.40;;;;;;;;;;103534;1306;22469;-84
2022/12/07 02:45:21;;;;;;;1.20;0.40;;;;;;;;;;103596;1307;24238;-82
2022/12/07 02:47:50;;;;;;;1.60;0.40;;;;;;;;;;103550;1305;22855;-78
2022/12/07 02:50:19;;;;;;;1.90;0.70;;;;;;;;;;103545;1307;22485;-82
2022/12/07 02:52:46;;;;;;;1.20;0.30;;;;;;;;;;103299;1306;22464;-81
2022/12/07 02:55:15;;;;;;;1.60;0.30;;;;;;;;;;103491;1302;23879;-81
2022/12/07 02:57:47;;;;;;;1.70;0.40;;;;;;;;;;103520;1307;24199;-82
2022/12/07 03:00:15;;;;;;;1.30;0.50;;;;;;;;;;103389;1306;23841;-81
2022/12/07 03:02:51;;;;;;;2.30;0.40;;;;;;;;;;103409;1306;25287;-80
2022/12/07 03:05:27;;;;;;;3.10;0.50;;;;;;;;;;103484;1306;22451;-77
2022/12/07 03:08:09;;;;;;;1.80;0.40;;;;;;;;;;103348;1299;22473;-79
2022/12/07 03:10:39;;;;;;;3.70;0.60;;;;;;;;;;103562;1297;24548;-77
2022/12/07 03:13:18;;;;;;;0.90;0.30;;;;;;;;;;103539;1306;25256;-80
2022/12/07 03:16:04;;;;;;;1.10;0.30;;;;;;;;;;103352;1306;22465;-80
2022/12/07 03:18:33;;;;;;;1.60;0.20;;;;;;;;;;103537;1306;24346;-83
2022/12/07 03:21:04;;;;;;;1.60;0.40;;;;;;;;;;103563;1306;25289;-81
2022/12/07 03:23:31;;;;;;;0.90;0.30;;;;;;;;;;103445;1306;24291;-80
2022/12/07 03:26:00;;;;;;;2.00;0.40;;;;;;;;;;103536;1299;23289;-78
2022/12/07 03:28:29;;;;;;;2.00;0.50;;;;;;;;;;103537;1306;25502;-79
2022/12/07 03:30:58;;;;;;;2.20;0.40;;;;;;;;;;103482;1306;24246;-80
2022/12/07 03:33:34;;;;;;;1.60;0.30;;;;;;;;;;103494;1306;24240;-78
2022/12/07 03:36:04;;;;;;;1.20;0.30;;;;;;;;;;103399;1306;22480;-83
2022/12/07 03:38:35;;;;;;;2.60;0.50;;;;;;;;;;103479;1297;23202;-84
2022/12/07 03:41:07;;;;;;;2.00;0.50;;;;;;;;;;103521;1301;22524;-81
2022/12/07 03:43:35;;;;;;;1.90;0.40;;;;;;;;;;103563;1306;22474;-81
2022/12/07 03:46:05;;;;;;;2.00;0.50;;;;;;;;;;103536;1300;22507;-83
2022/12/07 03:48:46;;;;;;;1.10;0.40;;;;;;;;;;103557;1306;22507;-84
2022/12/07 03:51:28;;;;;;;3.60;0.40;;;;;;;;;;103491;1306;22461;-83
2022/12/07 03:54:00;;;;;;;1.70;0.40;;;;;;;;;;103510;1307;22584;-79
2022/12/07 03:56:27;;;;;;;1.70;0.40;;;;;;;;;;103531;1306;22473;-80
2022/12/07 03:58:54;;;;;;;0.90;0.30;;;;;;;;;;103495;1306;24215;-79
2022/12/07 04:01:22;;;;;;;2.00;0.50;;;;;;;;;;103497;1301;25268;-83
2022/12/07 04:03:49;;;;;;;1.80;0.50;;;;;;;;;;103543;1285;25342;-79
2022/12/07 04:06:15;;;;;;;2.30;0.60;;;;;;;;;;103476;1307;22435;-81
2022/12/07 04:08:42;;;;;;;2.20;0.50;;;;;;;;;;103544;1307;25308;-78
2022/12/07 04:11:09;;;;;;;1.80;0.40;;;;;;;;;;103519;1307;22473;-83
2022/12/07 04:14:18;;;;;;;1.90;0.50;;;;;;;;;;103300;1306;22462;-78
2022/12/07 04:16:22;;;;;;;3.20;0.70;;;;;;;;;;103495;1306;26477;-84
2022/12/07 04:18:48;;;;;;;2.20;0.50;;;;;;;;;;103276;1306;24284;-81
2022/12/07 04:21:15;;;;;;;2.30;0.60;;;;;;;;;;103552;1306;22466;-78
2022/12/07 04:23:42;;;;;;;2.80;0.70;;;;;;;;;;103448;1294;22483;-79
2022/12/07 04:26:09;;;;;;;4.00;1.00;;;;;;;;;;103397;1307;25255;-81
2022/12/07 04:28:35;;;;;;;3.10;0.90;;;;;;;;;;103546;1307;24263;-77
2022/12/07 04:31:02;;;;;;;7.20;1.80;;;;;;;;;;103375;1304;24053;-79
2022/12/07 04:33:28;;;;;;;5.50;1.40;;;;;;;;;;103596;1304;23083;-80
2022/12/07 04:35:56;;;;;;;6.00;1.80;;;;;;;;;;103644;1307;22610;-78
2022/12/07 04:38:22;;;;;;;6.20;2.00;;;;;;;;;;103848;1306;22487;-78
2022/12/07 04:40:49;;;;;;;5.50;1.90;;;;;;;;;;103623;1305;25199;-80
2022/12/07 04:43:16;;;;;;;5.30;1.70;;;;;;;;;;103491;1307;22483;-77
2022/12/07 04:45:47;;;;;;;6.80;2.20;;;;;;;;;;103425;1307;25432;-83
2022/12/07 04:48:14;;;;;;;6.30;2.10;;;;;;;;;;103369;1307;22465;-84
2022/12/07 04:50:40;;;;;;;6.90;2.50;;;;;;;;;;103523;1307;25247;-84
2022/12/07 04:53:07;;;;;;;6.90;2.00;;;;;;;;;;103526;1300;22077;-81
2022/12/07 04:55:34;;;;;;;6.70;2.10;;;;;;;;;;103457;1307;25236;-81
2022/12/07 04:58:01;;;;;;;6.00;1.90;;;;;;;;;;103501;1307;24228;-80
2022/12/07 05:00:27;;;;;;;7.80;2.60;;;;;;;;;;103313;1306;24328;-81
2022/12/07 05:02:54;;;;;;;7.90;2.80;;;;;;;;;;103520;1306;23884;-79
2022/12/07 05:05:21;;;;;;;7.50;3.10;;;;;;;;;;103541;1306;22460;-86
2022/12/07 05:07:47;;;;;;;9.20;3.60;;;;;;;;;;103503;1306;25303;-79
2022/12/07 05:10:14;;;;;;;8.00;3.30;;;;;;;;;;103416;1306;23836;-83
2022/12/07 05:12:41;;;;;;;8.60;3.30;;;;;;;;;;103499;1306;25328;-82
2022/12/07 05:15:07;;;;;;;10.20;3.80;;;;;;;;;;103533;1306;22528;-80
2022/12/07 05:17:34;;;;;;;9.40;3.90;;;;;;;;;;103467;1301;24314;-79
2022/12/07 05:20:01;;;;;;;10.70;3.90;;;;;;;;;;103507;1306;21706;-77
2022/12/07 05:22:28;;;;;;;11.80;3.70;;;;;;;;;;103484;1306;24271;-82
2022/12/07 05:24:55;;;;;;;10.30;4.40;;;;;;;;;;103466;1306;22513;-82
2022/12/07 05:27:22;;;;;;;12.10;4.10;;;;;;;;;;103479;1306;22478;-83
2022/12/07 05:29:51;;;;;;;11.20;4.40;;;;;;;;;;103410;1306;22488;-79
2022/12/07 05:32:18;;;;;;;10.00;4.10;;;;;;;;;;103413;1306;22462;-81
2022/12/07 05:34:46;;;;;;;9.80;4.20;;;;;;;;;;103537;1306;23850;-79
2022/12/07 05:37:12;;;;;;;9.30;3.70;;;;;;;;;;103511;1306;22460;-83
2022/12/07 05:39:42;;;;;;;11.50;4.60;;;;;;;;;;103344;1307;22594;-82
2022/12/07 05:42:13;;;;;;;10.40;4.60;;;;;;;;;;103518;1301;22543;-80
2022/12/07 05:44:41;;;;;;;11.70;5.10;;;;;;;;;;103500;1298;21681;-79
2022/12/07 05:47:08;;;;;;;11.20;4.60;;;;;;;;;;103557;1306;25365;-80
2022/12/07 05:49:35;;;;;;;11.40;4.90;;;;;;;;;;103485;1304;24329;-81
2022/12/07 05:52:02;;;;;;;10.40;4.50;;;;;;;;;;103396;1306;22749;-84
2022/12/07 05:54:28;;;;;;;13.50;6.00;;;;;;;;;;103391;1302;22742;-84
2022/12/07 05:56:55;;;;;;;14.80;6.00;;;;;;;;;;103303;1305;22474;-78
2022/12/07 05:59:22;;;;;;;15.80;7.70;;;;;;;;;;103414;1307;22492;-80
2022/12/07 06:01:52;;;;;;;12.00;5.80;;;;;;;;;;107068;1299;22515;-78
2022/12/07 06:04:19;;;;;;;12.90;5.40;;;;;;;;;;106932;1306;22113;-78
2022/12/07 06:06:45;;;;;;;14.00;5.70;;;;;;;;;;106911;1302;22559;-78
2022/12/07 06:09:12;;;;;;;13.80;6.70;;;;;;;;;;107080;1304;22035;-77
2022/12/07 06:14:24;;;;;;;17.30;6.30;;;;;;;;;;106978;1306;23104;-77
2022/12/07 06:16:51;;;;;;;16.30;6.60;;;;;;;;;;106972;1298;22041;-77
2022/12/07 06:19:17;;;;;;;14.30;6.00;;;;;;;;;;106793;1306;22145;-76
2022/12/07 06:21:44;;;;;;;13.40;6.20;;;;;;;;;;106997;1305;22685;-76
2022/12/07 06:24:11;;;;;;;14.20;6.60;;;;;;;;;;106926;1306;22207;-77
2022/12/07 06:26:39;;;;;;;17.70;7.40;;;;;;;;;;106894;1306;22116;-77
2022/12/07 06:29:05;;;;;;;15.30;6.30;;;;;;;;;;106966;1298;22183;-77
2022/12/07 06:31:32;;;;;;;12.90;5.60;;;;;;;;;;106943;1306;22075;-76
2022/12/07 06:33:59;;;;;;;12.80;5.70;;;;;;;;;;106981;1305;22522;-77
2022/12/07 06:36:26;;;;;;;16.00;6.60;;;;;;;;;;106939;1300;22786;-76
2022/12/07 06:38:53;;;;;;;15.10;7.50;;;;;;;;;;106867;1306;22397;-77
2022/12/07 06:41:20;;;;;;;14.50;6.30;;;;;;;;;;106909;1305;22094;-77
2022/12/07 06:43:46;;;;;;;16.90;6.90;;;;;;;;;;106928;1292;22048;-77
2022/12/07 06:46:14;;;;;;;13.30;6.50;;;;;;;;;;106931;1300;22056;-77
2022/12/07 06:48:41;;;;;;;13.10;6.00;;;;;;;;;;107088;1296;22690;-76
2022/12/07 06:51:08;;;;;;;14.80;5.70;;;;;;;;;;106979;1306;22793;-77
2022/12/07 06:53:35;;;;;;;11.50;5.60;;;;;;;;;;106956;1307;22102;-76
2022/12/07 06:56:03;;;;;;;11.60;5.40;;;;;;;;;;106898;1306;21934;-77
2022/12/07 06:58:30;;;;;;;12.50;5.30;;;;;;;;;;106782;1306;22831;-76
2022/12/07 07:00:56;;;;;;;13.20;5.60;;;;;;;;;;106925;1304;22083;-76
2022/12/07 07:03:23;;;;;;;17.40;6.70;;;;;;;;;;106933;1305;22061;-77
2022/12/07 07:05:50;;;;;;;13.30;6.30;;;;;;;;;;106884;1306;22115;-77
2022/12/07 07:08:16;;;;;;;13.70;6.30;;;;;;;;;;106883;1306;22054;-77
2022/12/07 07:10:43;;;;;;;11.30;4.40;;;;;;;;;;106965;1298;22031;-76
2022/12/07 07:17:04;;;;;;;16.20;8.20;;;;;;;;;;106946;1306;22008;-76
2022/12/07 07:19:30;;;;;;;16.30;8.20;;;;;;;;;;106945;1306;22011;-77
2022/12/07 07:21:57;;;;;;;21.80;10.30;;;;;;;;;;106917;1299;22375;-77
2022/12/07 07:24:23;;;;;;;48.70;18.80;;;;;;;;;;106938;1306;22079;-77
2022/12/07 07:26:50;;;;;;;61.60;21.50;;;;;;;;;;106925;1305;22806;-77
2022/12/07 07:29:17;;;;;;;22.00;8.30;;;;;;;;;;106922;1298;22139;-77
2022/12/07 07:31:43;;;;;;;25.20;10.50;;;;;;;;;;106790;1306;22070;-77
2022/12/07 07:34:10;;;;;;;15.60;6.60;;;;;;;;;;106932;1306;22800;-77
2022/12/07 07:36:36;;;;;;;21.90;8.10;;;;;;;;;;106896;1306;22119;-76
2022/12/07 07:39:03;;;;;;;12.10;5.40;;;;;;;;;;106877;1302;22121;-77
2022/12/07 07:41:30;;;;;;;15.30;6.00;;;;;;;;;;106936;1306;22772;-77
2022/12/07 07:43:56;;;;;;;13.40;5.20;;;;;;;;;;106924;1306;21917;-77
2022/12/07 07:46:23;;;;;;;26.90;8.20;;;;;;;;;;106910;1306;22170;-77
2022/12/07 07:48:50;;;;;;;23.40;7.80;;;;;;;;;;106800;1306;22699;-76
2022/12/07 07:51:16;;;;;;;16.70;6.20;;;;;;;;;;106686;1308;22842;-77
2022/12/07 07:53:43;;;;;;;17.90;7.40;;;;;;;;;;106648;1309;22655;-77
2022/12/07 07:56:10;;;;;;;17.00;6.00;;;;;;;;;;106883;1307;22771;-77
2022/12/07 07:58:39;;;;;;;20.30;7.30;;;;;;;;;;106848;1300;22093;-76
2022/12/07 08:01:06;;;;;;;31.10;11.40;;;;;;;;;;106867;1297;22045;-77
2022/12/07 08:03:33;;;;;;;20.30;7.40;;;;;;;;;;106761;1308;22759;-75
2022/12/07 08:06:01;;;;;;;17.40;7.10;;;;;;;;;;106769;1300;21944;-77
2022/12/07 08:08:28;;;;;;;15.90;6.60;;;;;;;;;;106766;1307;21967;-77
2022/12/07 08:10:55;;;;;;;14.40;6.50;;;;;;;;;;106864;1307;22072;-77
2022/12/07 08:13:21;;;;;;;13.80;5.90;;;;;;;;;;106750;1307;22092;-77
2022/12/07 08:15:48;;;;;;;15.80;6.30;;;;;;;;;;106707;1296;22058;-77
2022/12/07 08:18:15;;;;;;;12.90;5.30;;;;;;;;;;106751;1301;22056;-77
2022/12/07 08:20:42;;;;;;;15.10;5.00;;;;;;;;;;106769;1307;22095;-75
2022/12/07 08:23:10;;;;;;;12.40;4.70;;;;;;;;;;106876;1307;22774;-77
2022/12/07 08:25:37;;;;;;;12.40;4.80;;;;;;;;;;106726;1309;22145;-78
2022/12/07 08:28:03;;;;;;;12.10;4.80;;;;;;;;;;106755;1303;22287;-78
2022/12/07 08:30:31;;;;;;;13.60;6.60;;;;;;;;;;106725;1308;22077;-77
2022/12/07 08:32:57;;;;;;;15.20;5.90;;;;;;;;;;106734;1308;22079;-77
2022/12/07 08:35:24;;;;;;;11.80;5.50;;;;;;;;;;106795;1306;21948;-78
2022/12/07 08:37:51;;;;;;;11.90;5.40;;;;;;;;;;106876;1304;22116;-77
2022/12/07 08:40:18;;;;;;;14.40;5.10;;;;;;;;;;106766;1308;22082;-78
2022/12/07 08:42:49;;;;;;;13.60;5.40;;;;;;;;;;106761;1309;22569;-78
2022/12/07 08:45:17;;;;;;;13.30;5.60;;;;;;;;;;106716;1308;22163;-78
2022/12/07 08:47:47;;;;;;;12.80;4.40;;;;;;;;;;106727;1309;22359;-78
2022/12/07 08:50:14;;;;;;;14.00;5.70;;;;;;;;;;106664;1309;22670;-78
2022/12/07 08:52:41;;;;;;;10.50;4.30;;;;;;;;;;106688;1308;21960;-78
2022/12/07 08:55:09;;;;;;;12.50;5.20;;;;;;;;;;106759;1308;22080;-77
2022/12/07 08:57:36;;;;;;;13.30;6.40;;;;;;;;;;106758;1309;22061;-77
2022/12/07 09:00:04;;;;;;;15.00;5.90;;;;;;;;;;106737;1307;22732;-77
2022/12/07 09:02:31;;;;;;;11.60;5.10;;;;;;;;;;106660;1295;21915;-77
2022/12/07 09:04:58;;;;;;;12.30;5.00;;;;;;;;;;106669;1307;22156;-76
2022/12/07 09:07:25;;;;;;;11.60;4.20;;;;;;;;;;106767;1307;22082;-78
2022/12/07 09:09:52;;;;;;;10.00;4.00;;;;;;;;;;106657;1295;22138;-78
2022/12/07 09:12:19;;;;;;;8.10;3.20;;;;;;;;;;106770;1309;22072;-76
2022/12/07 09:14:46;;;;;;;11.00;3.90;;;;;;;;;;106856;1301;22113;-78
2022/12/07 09:17:19;;;;;;;9.90;3.70;;;;;;;;;;106659;1307;21918;-78
2022/12/07 09:19:45;;;;;;;12.10;3.60;;;;;;;;;;106901;1302;22815;-78
2022/12/07 09:22:12;;;;;;;8.60;3.20;;;;;;;;;;106680;1310;22073;-78
2022/12/07 09:24:39;;;;;;;8.30;2.40;;;;;;;;;;106758;1309;22069;-78
2022/12/07 09:27:06;;;;;;;8.60;2.80;;;;;;;;;;106746;1309;21917;-78
2022/12/07 09:29:32;;;;;;;9.50;2.70;;;;;;;;;;106757;1309;22070;-78
2022/12/07 09:31:59;;;;;;;8.40;3.20;;;;;;;;;;106768;1309;22052;-78
2022/12/07 09:34:26;;;;;;;10.70;3.10;;;;;;;;;;107008;1292;22089;-77
2022/12/07 09:36:53;;;;;;;9.40;2.60;;;;;;;;;;106782;1308;22663;-77
2022/12/07 09:39:19;;;;;;;10.40;3.50;;;;;;;;;;106771;1295;22125;-78
2022/12/07 09:41:46;;;;;;;9.90;3.30;;;;;;;;;;106985;1294;22547;-77
2022/12/07 09:44:16;;;;;;;11.50;4.60;;;;;;;;;;106646;1309;21990;-78
2022/12/07 09:46:44;;;;;;;16.30;7.20;;;;;;;;;;106842;1309;22712;-78
2022/12/07 09:49:16;;;;;;;15.80;6.30;;;;;;;;;;106654;1309;22099;-76
2022/12/07 09:51:43;;;;;;;17.70;6.30;;;;;;;;;;106749;1309;21738;-78
2022/12/07 09:54:13;;;;;;;20.60;5.90;;;;;;;;;;106753;1300;22089;-79
2022/12/07 09:56:40;;;;;;;15.60;4.80;;;;;;;;;;106630;1309;22119;-79
2022/12/07 09:59:12;;;;;;;27.00;7.00;;;;;;;;;;106614;1309;22386;-79
2022/12/07 10:01:39;;;;;;;21.00;5.60;;;;;;;;;;106705;1309;22067;-78
2022/12/07 10:04:12;;;;;;;16.70;4.60;;;;;;;;;;106713;1309;22107;-78
2022/12/07 10:06:39;;;;;;;12.00;3.30;;;;;;;;;;106655;1311;22085;-78
2022/12/07 10:09:13;;;;;;;17.80;5.20;;;;;;;;;;106785;1300;21956;-78
2022/12/07 10:12:19;;;;;;;15.50;4.50;;;;;;;;;;106746;1309;22621;-78
2022/12/07 10:14:56;;;;;;;11.90;3.90;;;;;;;;;;106405;1307;22133;-78
2022/12/07 10:17:52;;;;;;;13.00;4.70;;;;;;;;;;106136;1314;22096;-78
2022/12/07 10:20:19;;;;;;;15.30;5.50;;;;;;;;;;106262;1308;22270;-78
2022/12/07 10:22:56;;;;;;;15.80;5.30;;;;;;;;;;106396;1314;22145;-78
2022/12/07 10:25:25;;;;;;;15.90;4.60;;;;;;;;;;106532;1305;22143;-77
2022/12/07 10:28:07;;;;;;;14.70;4.60;;;;;;;;;;106138;1314;22391;-79
2022/12/07 10:31:09;;;;;;;16.90;5.40;;;;;;;;;;106354;1313;22129;-79
2022/12/07 10:33:37;;;;;;;13.40;4.70;;;;;;;;;;105770;1318;22118;-79
2022/12/07 10:36:25;;;;;;;12.20;4.20;;;;;;;;;;105572;1318;22738;-79
2022/12/07 10:38:53;;;;;;;8.80;3.70;;;;;;;;;;105570;1318;22201;-78
2022/12/07 10:41:20;;;;;;;11.60;3.80;;;;;;;;;;105455;1321;22241;-80
2022/12/07 10:43:48;;;;;;;8.70;3.60;;;;;;;;;;105611;1319;21678;-78
2022/12/07 10:46:33;;;;;;;10.10;3.00;;;;;;;;;;105782;1313;22335;-78
2022/12/07 10:49:23;;;;;;;8.90;3.30;;;;;;;;;;105989;1317;22121;-78
2022/12/07 10:52:03;;;;;;;12.90;4.30;;;;;;;;;;106106;1315;22147;-78
2022/12/07 10:54:51;;;;;;;14.70;5.70;;;;;;;;;;106265;1315;22165;-78
2022/12/07 10:57:21;;;;;;;10.20;3.90;;;;;;;;;;106446;1309;22126;-79
2022/12/07 10:59:54;;;;;;;9.80;3.30;;;;;;;;;;106512;1309;22270;-80
2022/12/07 11:02:42;;;;;;;9.60;3.10;;;;;;;;;;106100;1299;22140;-77
2022/12/07 11:05:15;;;;;;;8.30;2.70;;;;;;;;;;105993;1315;22874;-77
2022/12/07 11:08:01;;;;;;;12.20;4.90;;;;;;;;;;106258;1310;22756;-78
2022/12/07 11:10:28;;;;;;;14.90;5.30;;;;;;;;;;106742;1310;22075;-78
2022/12/07 11:13:27;;;;;;;10.60;3.40;;;;;;;;;;106748;1309;22831;-78
2022/12/07 11:16:02;;;;;;;11.70;4.30;;;;;;;;;;106447;1308;22849;-79
2022/12/07 11:18:43;;;;;;;10.10;4.00;;;;;;;;;;105980;1317;22182;-78
2022/12/07 11:21:37;;;;;;;8.50;3.40;;;;;;;;;;105855;1314;22149;-78
2022/12/07 11:24:13;;;;;;;9.70;3.50;;;;;;;;;;106274;1314;22745;-78
2022/12/07 11:26:55;;;;;;;8.80;3.30;;;;;;;;;;106127;1313;22109;-76
2022/12/07 11:29:40;;;;;;;11.70;3.90;;;;;;;;;;106380;1312;22125;-78
2022/12/07 11:32:14;;;;;;;15.00;5.30;;;;;;;;;;106220;1308;22125;-77
2022/12/07 11:34:59;;;;;;;78.30;26.00;;;;;;;;;;106009;1315;21967;-76
2022/12/07 11:37:31;;;;;;;63.80;22.40;;;;;;;;;;106251;1315;21968;-78
2022/12/07 11:40:13;;;;;;;16.80;6.00;;;;;;;;;;106112;1315;22162;-77
2022/12/07 11:42:52;;;;;;;21.30;9.80;;;;;;;;;;106549;1305;22110;-78
2022/12/07 11:45:18;;;;;;;17.80;9.40;;;;;;;;;;106216;1315;22102;-77
2022/12/07 11:47:46;;;;;;;22.10;13.80;;;;;;;;;;106299;1315;22231;-78
2022/12/07 11:50:21;;;;;;;13.70;6.40;;;;;;;;;;106409;1313;23011;-79
2022/12/07 11:52:52;;;;;;;10.70;3.90;;;;;;;;;;106573;1296;21983;-78
2022/12/07 11:55:24;;;;;;;8.60;3.00;;;;;;;;;;106598;1312;22079;-78
2022/12/07 11:57:57;;;;;;;9.50;3.30;;;;;;;;;;106608;1311;21991;-78
2022/12/07 12:00:25;;;;;;;97.40;27.80;;;;;;;;;;106612;1304;22082;-78
2022/12/07 12:02:56;;;;;;;73.00;20.90;;;;;;;;;;106586;1309;22083;-77
2022/12/07 12:05:25;;;;;;;166.10;43.70;;;;;;;;;;106718;1302;22049;-78
2022/12/07 12:08:11;;;;;;;68.60;17.60;;;;;;;;;;106655;1310;22179;-78
2022/12/07 12:10:54;;;;;;;36.70;10.10;;;;;;;;;;106713;1309;22097;-76
2022/12/07 12:13:25;;;;;;;15.50;4.30;;;;;;;;;;105626;1310;22065;-78
2022/12/07 12:15:55;;;;;;;11.50;3.70;;;;;;;;;;106639;1311;22132;-78
2022/12/07 12:18:26;;;;;;;25.40;10.20;;;;;;;;;;106598;1312;22746;-75
2022/12/07 12:20:56;;;;;;;19.40;6.90;;;;;;;;;;106655;1313;22126;-76
2022/12/07 12:23:34;;;;;;;6.40;2.20;;;;;;;;;;106889;1297;21934;-77
2022/12/07 12:26:04;;;;;;;7.50;3.20;;;;;;;;;;106625;1311;22067;-77
2022/12/07 12:28:37;;;;;;;8.80;3.20;;;;;;;;;;106622;1312;22231;-76
2022/12/07 12:31:16;;;;;;;9.90;3.30;;;;;;;;;;106724;1306;22097;-78
2022/12/07 12:33:49;;;;;;;10.30;3.50;;;;;;;;;;106563;1312;22819;-77
2022/12/07 12:36:17;;;;;;;11.30;4.30;;;;;;;;;;106606;1311;22869;-77
2022/12/07 12:38:59;;;;;;;10.30;4.50;;;;;;;;;;106612;1312;22916;-77
2022/12/07 12:44:18;;;;;;;11.00;4.20;;;;;;;;;;106606;1309;22994;-77
2022/12/07 12:46:48;;;;;;;8.40;3.20;;;;;;;;;;106668;1311;22087;-77
2022/12/07 12:49:21;;;;;;;9.20;3.10;;;;;;;;;;106620;1309;22115;-77
2022/12/07 12:51:50;;;;;;;6.90;2.40;;;;;;;;;;106655;1309;22018;-78
2022/12/07 12:54:26;;;;;;;9.10;3.20;;;;;;;;;;106616;1312;22832;-75
2022/12/07 12:57:15;;;;;;;9.80;3.40;;;;;;;;;;106662;1311;22072;-77
2022/12/07 13:00:04;;;;;;;9.10;2.70;;;;;;;;;;106660;1312;22060;-76
2022/12/07 13:02:36;;;;;;;11.90;3.00;;;;;;;;;;106632;1305;22289;-77
2022/12/07 13:05:30;;;;;;;10.90;4.50;;;;;;;;;;106661;1310;22922;-76
2022/12/07 13:08:00;;;;;;;9.30;3.50;;;;;;;;;;106669;1310;22058;-77
2022/12/07 13:10:39;;;;;;;8.60;2.90;;;;;;;;;;106641;1312;22104;-77
2022/12/07 13:13:30;;;;;;;7.70;2.80;;;;;;;;;;106614;1312;22338;-77
2022/12/07 13:16:28;;;;;;;7.90;2.80;;;;;;;;;;106489;1311;22790;-76
2022/12/07 13:18:57;;;;;;;19.20;6.20;;;;;;;;;;106656;1295;22003;-77
2022/12/07 13:21:44;;;;;;;25.40;9.40;;;;;;;;;;106631;1312;22900;-77
2022/12/07 13:24:13;;;;;;;34.20;11.40;;;;;;;;;;106592;1304;22096;-76
2022/12/07 13:26:44;;;;;;;17.90;5.90;;;;;;;;;;106692;1311;22092;-76
2022/12/07 13:29:15;;;;;;;13.80;5.40;;;;;;;;;;106645;1312;22081;-77
2022/12/07 13:31:55;;;;;;;11.60;4.50;;;;;;;;;;106650;1311;22066;-77
2022/12/07 13:34:34;;;;;;;10.80;4.20;;;;;;;;;;106587;1312;22214;-77
2022/12/07 13:37:11;;;;;;;16.00;7.20;;;;;;;;;;106616;1312;22010;-78
2022/12/07 13:39:51;;;;;;;29.80;15.50;;;;;;;;;;106572;1312;22110;-78
2022/12/07 13:42:26;;;;;;;13.70;6.30;;;;;;;;;;106545;1312;22079;-78
2022/12/07 13:44:56;;;;;;;14.30;7.30;;;;;;;;;;106541;1305;22136;-77
2022/12/07 13:47:35;;;;;;;16.30;5.50;;;;;;;;;;106624;1312;22763;-77
2022/12/07 13:50:22;;;;;;;20.10;5.80;;;;;;;;;;106572;1312;22825;-78
2022/12/07 14:00:17;;;;;;;10.60;3.50;;;;;;;;;;100364;1320;547850;-78
2022/12/07 14:03:00;;;;;;;11.70;3.80;;;;;;;;;;102532;1298;25258;-80
2022/12/07 14:05:27;;;;;;;18.60;4.90;;;;;;;;;;102621;1296;22517;-82
2022/12/07 14:08:00;;;;;;;15.10;4.80;;;;;;;;;;102825;1302;22789;-80
2022/12/07 14:10:30;;;;;;;20.00;5.80;;;;;;;;;;105818;1319;22973;-77
2022/12/07 14:12:56;;;;;;;16.50;4.90;;;;;;;;;;104957;1316;1332977;-77
2022/12/07 14:15:33;;;;;;;9.70;3.60;;;;;;;;;;106299;1296;22134;-77
2022/12/07 14:18:03;;;;;;;14.40;5.10;;;;;;;;;;106091;1295;22151;-77
2022/12/07 14:20:36;;;;;;;12.20;4.40;;;;;;;;;;106097;1316;22307;-78
2022/12/07 14:23:08;;;;;;;13.00;5.40;;;;;;;;;;106202;1292;22232;-76
2022/12/07 14:25:45;;;;;;;13.00;4.60;;;;;;;;;;106447;1297;22938;-80
2022/12/07 14:28:28;;;;;;;39.70;14.70;;;;;;;;;;106008;1316;22764;-76
2022/12/07 14:30:55;;;;;;;38.60;16.20;;;;;;;;;;106072;1316;23009;-78
2022/12/07 14:33:22;;;;;;;21.90;9.50;;;;;;;;;;106078;1292;22104;-77
2022/12/07 14:35:49;;;;;;;18.40;6.50;;;;;;;;;;106101;1316;22293;-77
2022/12/07 14:38:18;;;;;;;13.30;4.60;;;;;;;;;;106512;1301;23152;-77
2022/12/07 14:40:45;;;;;;;17.50;7.20;;;;;;;;;;106154;1292;22294;-77
2022/12/07 14:43:12;;;;;;;17.50;7.20;;;;;;;;;;106164;1316;22531;-78
2022/12/07 14:45:40;;;;;;;14.10;5.60;;;;;;;;;;105890;1316;22187;-77
2022/12/07 14:48:11;;;;;;;20.50;7.70;;;;;;;;;;106085;1295;22267;-77
2022/12/07 14:50:43;;;;;;;16.10;6.10;;;;;;;;;;106601;1308;22091;-77
2022/12/07 14:53:14;;;;;;;12.50;4.40;;;;;;;;;;106656;1309;22764;-76
2022/12/07 14:55:41;;;;;;;14.70;4.70;;;;;;;;;;106935;1302;22709;-77
2022/12/07 14:58:15;;;;;;;33.50;12.50;;;;;;;;;;106867;1300;22109;-78